Time;durP1;ratioP1;P1;durP2;ratioP2;P2;SDS_P1;SDS_P2;PMS_P1;PMS_P2;Temp;Humidity;BMP_temperature;BMP_pressure;BME280_temperature;BME280_humidity;BME280_pressure;Samples;Min_cycle;Max_cycle;Signal;HPM_P1;HPM_P2
2021/09/19 05:54:21;;;;;;;9.45;6.82;;;;;;;;;;5412369;23;20055;-82
2021/09/19 05:56:46;;;;;;;7.72;6.88;;;;;;;;;;4974877;28;20039;-82
2021/09/19 05:59:12;;;;;;;8.02;7.22;;;;;;;;;;4975156;28;20114;-84
2021/09/19 06:01:37;;;;;;;8.75;7.30;;;;;;;;;;4975265;28;20366;-83
2021/09/19 06:04:02;;;;;;;7.68;6.82;;;;;;;;;;4975066;28;20058;-85
2021/09/19 06:06:28;;;;;;;8.27;7.28;;;;;;;;;;4983874;28;20026;-84
2021/09/19 06:08:53;;;;;;;8.75;7.53;;;;;;;;;;4994386;28;20027;-82
2021/09/19 06:11:19;;;;;;;7.57;6.88;;;;;;;;;;4994547;28;20030;-78
2021/09/19 06:13:44;;;;;;;8.02;6.93;;;;;;;;;;4994340;28;20381;-78
2021/09/19 06:16:09;;;;;;;9.77;7.80;;;;;;;;;;5007456;23;20055;-77
2021/09/19 10:22:26;;;;;;;4.30;3.63;;;;;;;;;;4975240;28;20173;-86
2021/09/19 10:24:52;;;;;;;5.55;4.65;;;;;;;;;;4994381;28;20536;-86
2021/09/19 10:27:23;;;;;;;5.05;4.50;;;;;;;;;;4994629;28;20469;-94
2021/09/19 10:29:58;;;;;;;4.85;4.40;;;;;;;;;;4977367;28;20026;-84
2021/09/19 10:32:44;;;;;;;6.68;4.43;;;;;;;;;;4994748;28;20030;-84
2021/09/19 10:35:15;;;;;;;6.05;5.00;;;;;;;;;;4994075;28;20030;-81
2021/09/19 10:38:04;;;;;;;7.85;3.78;;;;;;;;;;4993952;28;20085;-83
2021/09/19 10:40:32;;;;;;;5.27;3.67;;;;;;;;;;4994318;28;20019;-83
2021/09/19 10:42:58;;;;;;;4.43;3.47;;;;;;;;;;4994477;28;20477;-84
2021/09/19 10:45:42;;;;;;;4.30;3.83;;;;;;;;;;4994133;28;20118;-83
2021/09/19 10:48:15;;;;;;;6.47;4.03;;;;;;;;;;4994032;28;20069;-88
2021/09/19 10:50:43;;;;;;;5.60;4.95;;;;;;;;;;4994165;28;20022;-87
2021/09/19 10:53:25;;;;;;;5.57;5.07;;;;;;;;;;4994169;28;20432;-87
2021/09/19 10:55:58;;;;;;;5.45;4.93;;;;;;;;;;4976985;28;20436;-86
2021/09/19 10:58:26;;;;;;;5.43;4.80;;;;;;;;;;4993673;28;20129;-85
2021/09/19 11:01:18;;;;;;;5.78;5.28;;;;;;;;;;4993728;28;20109;-87
2021/09/19 11:04:06;;;;;;;6.50;5.38;;;;;;;;;;4993822;28;20022;-86
2021/09/19 11:06:36;;;;;;;5.78;5.13;;;;;;;;;;4993634;28;20030;-88
2021/09/19 11:09:19;;;;;;;;;;;;;;;;;;4994525;28;20473;-89
2021/09/19 11:12:06;;;;;;;7.22;5.78;;;;;;;;;;4997136;28;19960;-77
2021/09/19 11:15:06;;;;;;;6.75;6.05;;;;;;;;;;4997780;28;20469;-76
2021/09/19 11:17:34;;;;;;;7.50;6.68;;;;;;;;;;4997675;28;20455;-77
2021/09/19 11:20:24;;;;;;;8.77;7.95;;;;;;;;;;4997396;28;20112;-77
2021/09/19 11:22:53;;;;;;;10.13;8.20;;;;;;;;;;4987539;28;20109;-77
2021/09/19 11:25:21;;;;;;;9.15;7.88;;;;;;;;;;4997489;28;20080;-77
2021/09/19 11:27:48;;;;;;;8.57;7.35;;;;;;;;;;4997371;28;20026;-77
2021/09/19 11:30:18;;;;;;;7.30;6.60;;;;;;;;;;4997602;28;20030;-77
2021/09/19 11:40:28;;;;;;;8.50;7.60;;;;;;;;;;5221425;23;20063;-76
2021/09/19 11:42:57;;;;;;;8.85;7.38;;;;;;;;;;4957936;28;20035;-76
2021/09/19 11:45:22;;;;;;;7.95;7.15;;;;;;;;;;4958047;29;20023;-77
2021/09/19 11:47:52;;;;;;;9.32;7.53;;;;;;;;;;4957869;28;20033;-76
2021/09/19 11:50:21;;;;;;;6.90;6.15;;;;;;;;;;4958039;29;20031;-76
2021/09/19 11:52:51;;;;;;;6.95;6.30;;;;;;;;;;4958123;29;20023;-77
2021/09/19 11:55:16;;;;;;;;;;;;;;;;;;4958571;29;20035;-77
2021/09/19 11:57:41;;;;;;;7.35;6.18;;;;;;;;;;4957637;28;19918;-76
2021/09/19 12:00:08;;;;;;;6.95;6.25;;;;;;;;;;4957761;28;20118;-76
2021/09/19 12:02:36;;;;;;;6.20;5.60;;;;;;;;;;4957959;28;20027;-77
2021/09/19 12:05:01;;;;;;;6.60;5.90;;;;;;;;;;4957806;28;20027;-77
2021/09/19 12:07:27;;;;;;;7.03;6.18;;;;;;;;;;4958026;28;20122;-77
2021/09/19 12:09:52;;;;;;;9.65;8.07;;;;;;;;;;4957463;28;20023;-77
2021/09/19 12:12:20;;;;;;;8.68;7.50;;;;;;;;;;4957781;29;20055;-77
2021/09/19 12:14:49;;;;;;;7.72;5.80;;;;;;;;;;4957632;28;20082;-77
2021/09/19 12:17:15;;;;;;;10.57;8.60;;;;;;;;;;4957614;28;20070;-76
2021/09/19 12:19:45;;;;;;;5.63;5.13;;;;;;;;;;4957406;29;20039;-77
2021/09/19 12:22:23;;;;;;;5.30;4.80;;;;;;;;;;4957538;28;20059;-77
2021/09/19 12:24:57;;;;;;;5.47;4.95;;;;;;;;;;4957278;29;20034;-77
2021/09/19 12:27:28;;;;;;;4.88;4.47;;;;;;;;;;4957025;28;20035;-77
2021/09/19 12:30:14;;;;;;;5.82;5.22;;;;;;;;;;4957801;28;20023;-81
2021/09/19 12:32:46;;;;;;;5.55;5.05;;;;;;;;;;4957542;28;20041;-81
2021/09/19 12:35:25;;;;;;;7.20;5.03;;;;;;;;;;4957454;29;20489;-81
2021/09/19 12:37:51;;;;;;;5.78;4.30;;;;;;;;;;4957002;28;20089;-81
2021/09/19 12:40:18;;;;;;;4.97;4.20;;;;;;;;;;4957529;29;20051;-86
2021/09/19 12:42:45;;;;;;;5.70;4.45;;;;;;;;;;4940086;29;20383;-84
2021/09/19 12:45:13;;;;;;;4.60;4.20;;;;;;;;;;4957204;29;20521;-87
2021/09/19 12:47:39;;;;;;;4.35;3.85;;;;;;;;;;4957183;29;20114;-78
2021/09/19 12:50:15;;;;;;;5.18;4.60;;;;;;;;;;4957194;29;20434;-85
2021/09/19 12:52:40;;;;;;;4.82;4.43;;;;;;;;;;4957289;29;20126;-85
2021/09/19 12:55:13;;;;;;;7.07;6.38;;;;;;;;;;4957192;29;20123;-83
2021/09/19 12:57:39;;;;;;;6.20;5.63;;;;;;;;;;4956825;29;20030;-83
2021/09/19 13:00:05;;;;;;;6.03;4.85;;;;;;;;;;4957081;29;20023;-86
2021/09/19 13:02:30;;;;;;;5.15;4.40;;;;;;;;;;4957124;29;20027;-78
2021/09/19 13:04:55;;;;;;;6.45;4.55;;;;;;;;;;4956678;29;20042;-79
2021/09/19 13:07:21;;;;;;;6.50;4.18;;;;;;;;;;4956580;29;20081;-78
2021/09/19 13:09:47;;;;;;;4.97;4.50;;;;;;;;;;4956746;29;20027;-80
2021/09/19 13:12:13;;;;;;;7.13;4.63;;;;;;;;;;4924797;29;20494;-77
2021/09/19 13:14:39;;;;;;;5.32;4.68;;;;;;;;;;4952118;29;20031;-77
2021/09/19 13:17:05;;;;;;;7.45;4.50;;;;;;;;;;4945992;28;20359;-77
2021/09/19 13:19:31;;;;;;;5.50;3.97;;;;;;;;;;4955743;28;20048;-77
2021/09/19 13:21:57;;;;;;;4.97;4.57;;;;;;;;;;4969026;28;20030;-77
2021/09/19 13:24:22;;;;;;;4.90;4.32;;;;;;;;;;4955992;28;20421;-77
2021/09/19 13:26:49;;;;;;;4.32;3.92;;;;;;;;;;4938746;29;20093;-77
2021/09/19 13:29:16;;;;;;;4.68;4.18;;;;;;;;;;4958985;28;20027;-77
2021/09/19 13:31:43;;;;;;;6.22;4.32;;;;;;;;;;4948242;29;20031;-77
2021/09/19 13:34:09;;;;;;;4.97;4.18;;;;;;;;;;4954962;28;20059;-77
2021/09/19 13:36:35;;;;;;;6.00;4.25;;;;;;;;;;4955815;28;20027;-77
2021/09/19 13:39:01;;;;;;;6.70;5.07;;;;;;;;;;4953332;28;20043;-80
2021/09/19 13:41:26;;;;;;;6.15;4.55;;;;;;;;;;4955660;28;20536;-78
2021/09/19 13:43:52;;;;;;;4.18;3.78;;;;;;;;;;4953898;28;20023;-77
2021/09/19 13:46:18;;;;;;;4.32;3.17;;;;;;;;;;4958357;28;20019;-77
2021/09/19 13:48:47;;;;;;;4.25;3.45;;;;;;;;;;4965350;28;20046;-77
2021/09/19 13:51:14;;;;;;;3.55;3.28;;;;;;;;;;4955369;28;20027;-77
2021/09/19 13:53:40;;;;;;;3.50;3.20;;;;;;;;;;4955504;28;20272;-78
2021/09/19 13:56:06;;;;;;;3.50;3.15;;;;;;;;;;4955280;28;20054;-77
2021/09/19 13:58:32;;;;;;;3.30;2.90;;;;;;;;;;4955124;28;20537;-77
2021/09/19 14:00:57;;;;;;;4.82;2.83;;;;;;;;;;4955398;28;20114;-77
2021/09/19 14:03:22;;;;;;;3.80;2.90;;;;;;;;;;4955099;28;20077;-77
2021/09/19 14:05:48;;;;;;;4.45;2.58;;;;;;;;;;4955378;28;20027;-77
2021/09/19 14:08:13;;;;;;;4.93;3.03;;;;;;;;;;4954934;28;20039;-77
2021/09/19 14:10:40;;;;;;;5.28;2.78;;;;;;;;;;4955285;28;20028;-77
2021/09/19 14:13:06;;;;;;;3.65;3.00;;;;;;;;;;4954887;28;20034;-77
2021/09/19 14:15:33;;;;;;;4.43;4.00;;;;;;;;;;4955021;28;20045;-77
2021/09/19 14:17:58;;;;;;;9.30;8.35;;;;;;;;;;4954906;28;20035;-77
2021/09/19 14:20:29;;;;;;;6.20;5.20;;;;;;;;;;4957801;28;20084;-77
2021/09/19 14:22:55;;;;;;;5.55;3.72;;;;;;;;;;4964827;28;20027;-77
2021/09/19 14:25:20;;;;;;;3.63;3.10;;;;;;;;;;4954738;28;20364;-77
2021/09/19 14:27:46;;;;;;;4.57;3.70;;;;;;;;;;4954989;28;20051;-77
2021/09/19 14:30:12;;;;;;;4.25;3.53;;;;;;;;;;4955002;28;20110;-77
2021/09/19 14:32:38;;;;;;;5.03;3.30;;;;;;;;;;4941297;28;20474;-77
2021/09/19 14:35:04;;;;;;;5.60;3.40;;;;;;;;;;4954831;28;20028;-77
2021/09/19 14:37:31;;;;;;;3.50;3.20;;;;;;;;;;4954570;28;20030;-77
2021/09/19 14:39:57;;;;;;;4.13;3.72;;;;;;;;;;4954888;29;20047;-78
2021/09/19 14:42:22;;;;;;;5.30;3.58;;;;;;;;;;4954595;29;20086;-77
2021/09/19 14:44:48;;;;;;;4.10;3.40;;;;;;;;;;4954962;28;20019;-77
2021/09/19 14:47:13;;;;;;;3.97;3.67;;;;;;;;;;4958665;29;20452;-78
2021/09/19 14:49:39;;;;;;;4.57;4.18;;;;;;;;;;4958748;29;20019;-77
2021/09/19 14:52:04;;;;;;;4.65;4.10;;;;;;;;;;4958532;29;20493;-80
2021/09/19 14:54:30;;;;;;;4.25;3.58;;;;;;;;;;4952467;29;20023;-77
2021/09/19 14:56:55;;;;;;;3.75;3.45;;;;;;;;;;4948301;29;20032;-77
2021/09/19 14:59:21;;;;;;;6.40;3.88;;;;;;;;;;4955528;29;20118;-80
2021/09/19 15:01:46;;;;;;;4.70;3.63;;;;;;;;;;4956778;29;20094;-78
2021/09/19 15:04:12;;;;;;;4.70;3.53;;;;;;;;;;4927969;29;20024;-77
2021/09/19 15:06:37;;;;;;;3.95;3.63;;;;;;;;;;4956751;29;20019;-77
2021/09/19 15:09:03;;;;;;;4.07;3.67;;;;;;;;;;4956962;29;20492;-77
2021/09/19 15:11:28;;;;;;;3.58;3.20;;;;;;;;;;4953054;29;20074;-78
2021/09/19 15:13:54;;;;;;;4.55;3.70;;;;;;;;;;4930782;29;20058;-77
2021/09/19 15:16:21;;;;;;;4.20;3.80;;;;;;;;;;4926302;29;20032;-78
2021/09/19 15:18:48;;;;;;;4.85;4.43;;;;;;;;;;4943444;29;20066;-81
2021/09/19 15:21:14;;;;;;;6.00;4.10;;;;;;;;;;4928698;29;20410;-82
2021/09/19 15:23:40;;;;;;;6.30;4.30;;;;;;;;;;4941744;29;20433;-83
2021/09/19 15:26:07;;;;;;;5.50;4.95;;;;;;;;;;4946095;29;20031;-83
2021/09/19 15:28:33;;;;;;;6.85;4.90;;;;;;;;;;4954529;29;20059;-82
2021/09/19 15:30:59;;;;;;;4.53;4.13;;;;;;;;;;4953374;29;20063;-84
2021/09/19 15:33:25;;;;;;;4.55;4.15;;;;;;;;;;4942706;29;20025;-83
2021/09/19 15:35:51;;;;;;;6.95;3.97;;;;;;;;;;4943415;29;20352;-93
2021/09/19 15:38:16;;;;;;;4.88;4.47;;;;;;;;;;4938364;29;20034;-82
2021/09/19 15:40:57;;;;;;;4.30;3.67;;;;;;;;;;4965565;28;20383;-86
2021/09/19 15:43:31;;;;;;;5.25;4.43;;;;;;;;;;4957404;28;20031;-84
2021/09/19 15:46:05;;;;;;;5.10;3.80;;;;;;;;;;4957678;28;20122;-84
2021/09/19 15:48:31;;;;;;;5.88;5.35;;;;;;;;;;4948437;28;20036;-83
2021/09/19 15:51:00;;;;;;;7.32;5.40;;;;;;;;;;4945981;28;20023;-83
2021/09/19 15:53:31;;;;;;;5.10;4.68;;;;;;;;;;4957405;28;20023;-84
2021/09/19 15:55:57;;;;;;;5.35;4.85;;;;;;;;;;4956388;28;20023;-84
2021/09/19 15:58:24;;;;;;;4.10;3.70;;;;;;;;;;4957130;28;20371;-82
2021/09/19 16:00:50;;;;;;;4.22;3.83;;;;;;;;;;4954730;28;20027;-84
2021/09/19 16:03:16;;;;;;;3.92;3.53;;;;;;;;;;4939283;28;20036;-83
2021/09/19 16:05:48;;;;;;;3.78;2.95;;;;;;;;;;4954409;28;20034;-91
2021/09/19 16:08:20;;;;;;;4.00;1.67;;;;;;;;;;4957564;28;20509;-86
2021/09/19 16:10:47;;;;;;;3.33;1.50;;;;;;;;;;4958202;28;20031;-88
2021/09/19 16:13:13;;;;;;;5.43;2.42;;;;;;;;;;4939860;29;20453;-86
2021/09/19 16:15:39;;;;;;;1.98;1.60;;;;;;;;;;4957108;28;20037;-83
2021/09/19 16:18:06;;;;;;;2.15;1.83;;;;;;;;;;4939280;29;20023;-83
2021/09/19 16:20:32;;;;;;;2.45;1.13;;;;;;;;;;4960808;28;20018;-85
2021/09/19 16:23:00;;;;;;;1.50;1.20;;;;;;;;;;4948693;29;20027;-87
2021/09/19 16:25:26;;;;;;;1.65;1.05;;;;;;;;;;4956819;28;20509;-82
2021/09/19 16:27:51;;;;;;;3.53;1.30;;;;;;;;;;4956848;29;20118;-84
2021/09/19 16:30:17;;;;;;;2.88;1.00;;;;;;;;;;4942535;28;20102;-81
2021/09/19 16:32:42;;;;;;;3.17;1.20;;;;;;;;;;4956529;28;20430;-82
2021/09/19 16:35:08;;;;;;;1.45;1.27;;;;;;;;;;4939585;29;20031;-80
2021/09/19 16:37:35;;;;;;;3.10;1.17;;;;;;;;;;4956140;28;20360;-80
2021/09/19 16:40:01;;;;;;;0.73;0.68;;;;;;;;;;4959912;28;20394;-80
2021/09/19 16:42:26;;;;;;;1.38;0.60;;;;;;;;;;4956364;28;20032;-81
2021/09/19 16:44:52;;;;;;;1.48;0.85;;;;;;;;;;4956376;28;20422;-83
2021/09/19 16:47:18;;;;;;;3.03;1.00;;;;;;;;;;4956152;28;20039;-81
2021/09/19 16:49:44;;;;;;;2.30;0.80;;;;;;;;;;4939173;29;20035;-78
2021/09/19 16:52:09;;;;;;;5.05;1.10;;;;;;;;;;4945769;28;20031;-77
2021/09/19 16:54:35;;;;;;;0.80;0.60;;;;;;;;;;4940495;28;20063;-79
2021/09/19 16:57:00;;;;;;;2.65;0.73;;;;;;;;;;4947033;28;20422;-80
2021/09/19 16:59:26;;;;;;;3.65;1.00;;;;;;;;;;4955861;28;20121;-81
2021/09/19 17:01:51;;;;;;;2.55;1.20;;;;;;;;;;4956063;28;20027;-87
2021/09/19 17:04:16;;;;;;;4.00;1.00;;;;;;;;;;4935196;28;20209;-77
2021/09/19 17:06:42;;;;;;;2.47;1.08;;;;;;;;;;4944107;28;20030;-85
2021/09/19 17:09:07;;;;;;;1.92;0.90;;;;;;;;;;4955016;28;20383;-82
2021/09/19 17:11:33;;;;;;;1.83;0.50;;;;;;;;;;4955904;28;20075;-88
2021/09/19 17:13:58;;;;;;;1.23;0.82;;;;;;;;;;4955861;28;20118;-84
2021/09/19 17:16:23;;;;;;;1.50;0.80;;;;;;;;;;4948957;28;20066;-81
2021/09/19 17:18:49;;;;;;;1.05;0.68;;;;;;;;;;4944636;28;20078;-85
2021/09/19 17:21:15;;;;;;;1.83;0.80;;;;;;;;;;4929781;29;20083;-82
2021/09/19 17:23:40;;;;;;;1.92;0.73;;;;;;;;;;4942288;28;20035;-79
2021/09/19 17:26:05;;;;;;;1.35;1.00;;;;;;;;;;4955698;28;20091;-81
2021/09/19 17:28:31;;;;;;;1.23;0.73;;;;;;;;;;4955196;28;20359;-79
2021/09/19 17:30:57;;;;;;;2.58;1.10;;;;;;;;;;4954511;28;20031;-78
2021/09/19 17:33:23;;;;;;;3.00;1.00;;;;;;;;;;4948212;28;20031;-77
2021/09/19 17:35:52;;;;;;;1.52;0.73;;;;;;;;;;4955593;28;20031;-84
2021/09/19 17:38:18;;;;;;;;;;;;;;;;;;4956053;28;20475;-78
2021/09/19 17:40:43;;;;;;;2.63;0.88;;;;;;;;;;4955643;29;19929;-80
2021/09/19 17:43:08;;;;;;;5.13;0.80;;;;;;;;;;4956118;29;20028;-81
2021/09/19 17:45:34;;;;;;;1.75;1.00;;;;;;;;;;4942985;29;20020;-83
2021/09/19 17:48:00;;;;;;;2.08;0.80;;;;;;;;;;4936245;29;20027;-80
2021/09/19 17:50:25;;;;;;;1.45;0.82;;;;;;;;;;4936676;29;20043;-79
2021/09/19 17:52:51;;;;;;;1.35;0.90;;;;;;;;;;4936716;29;20028;-78
2021/09/19 17:55:16;;;;;;;1.00;0.88;;;;;;;;;;4937203;29;20356;-78
2021/09/19 17:57:42;;;;;;;1.45;1.00;;;;;;;;;;4936867;29;20081;-78
2021/09/19 18:00:08;;;;;;;3.90;0.93;;;;;;;;;;4936790;29;20079;-80
2021/09/19 18:02:34;;;;;;;1.73;0.90;;;;;;;;;;4936640;29;20038;-78
2021/09/19 18:04:59;;;;;;;1.50;0.70;;;;;;;;;;4936643;29;20115;-77
2021/09/19 18:07:25;;;;;;;1.20;0.90;;;;;;;;;;4936641;29;20535;-83
2021/09/19 18:09:51;;;;;;;2.53;0.85;;;;;;;;;;4936607;29;20044;-84
2021/09/19 18:12:16;;;;;;;3.53;0.80;;;;;;;;;;4936425;29;20020;-85
2021/09/19 18:14:42;;;;;;;2.40;0.85;;;;;;;;;;4919790;29;20039;-80
2021/09/19 18:17:07;;;;;;;0.75;0.60;;;;;;;;;;4936707;29;20034;-90
2021/09/19 18:19:33;;;;;;;5.45;0.70;;;;;;;;;;4936287;29;20024;-83
2021/09/19 18:21:59;;;;;;;1.33;0.57;;;;;;;;;;4919633;29;20039;-86
2021/09/19 18:24:26;;;;;;;1.80;0.80;;;;;;;;;;4936431;29;20106;-82
2021/09/19 18:26:51;;;;;;;1.25;0.70;;;;;;;;;;4936512;29;20027;-84
2021/09/19 18:29:17;;;;;;;0.93;0.82;;;;;;;;;;4936526;29;20106;-83
2021/09/19 18:31:43;;;;;;;1.60;0.68;;;;;;;;;;4936570;29;20028;-83
2021/09/19 18:34:09;;;;;;;2.83;0.90;;;;;;;;;;4936369;29;20087;-86
2021/09/19 18:36:34;;;;;;;2.80;0.90;;;;;;;;;;4936171;29;20027;-86
2021/09/19 18:39:00;;;;;;;1.30;0.65;;;;;;;;;;4921459;28;21147;-79
